Time;durP1;ratioP1;P1;durP2;ratioP2;P2;SDS_P1;SDS_P2;PMS_P1;PMS_P2;Temp;Humidity;BMP_temperature;BMP_pressure;BME280_temperature;BME280_humidity;BME280_pressure;Samples;Min_cycle;Max_cycle;Signal;HPM_P1;HPM_P2
2023/01/06 00:01:09;;;;;;;2.72;1.05;;;;;;;;;;5023531;28;20696;-88
2023/01/06 00:03:35;;;;;;;2.78;1.00;;;;;;;;;;5042023;28;20037;-88
2023/01/06 00:06:02;;;;;;;1.02;0.80;;;;;;;;;;5048962;28;20042;-86
2023/01/06 00:08:28;;;;;;;0.82;0.80;;;;;;;;;;5058010;28;20034;-89
2023/01/06 00:10:53;;;;;;;0.95;0.90;;;;;;;;;;5045384;28;20026;-89
2023/01/06 00:13:18;;;;;;;1.00;1.00;;;;;;;;;;5057306;28;20034;-87
2023/01/06 00:15:44;;;;;;;1.13;1.00;;;;;;;;;;5042479;28;20044;-87
2023/01/06 00:18:12;;;;;;;0.98;0.98;;;;;;;;;;5041004;28;20513;-87
2023/01/06 00:20:38;;;;;;;1.10;0.80;;;;;;;;;;5022098;28;20064;-86
2023/01/06 00:23:03;;;;;;;1.38;1.00;;;;;;;;;;5019282;28;20033;-87
2023/01/06 00:25:29;;;;;;;0.95;0.77;;;;;;;;;;5021095;28;20017;-87
2023/01/06 00:27:54;;;;;;;1.08;0.98;;;;;;;;;;5037121;28;20033;-88
2023/01/06 00:30:20;;;;;;;1.67;1.20;;;;;;;;;;5034088;28;20033;-87
2023/01/06 00:32:45;;;;;;;3.13;1.23;;;;;;;;;;5030292;28;20419;-87
2023/01/06 00:35:11;;;;;;;1.40;1.15;;;;;;;;;;5037893;28;20097;-87
2023/01/06 00:37:36;;;;;;;2.13;0.85;;;;;;;;;;5014929;28;20084;-87
2023/01/06 00:40:01;;;;;;;1.35;0.75;;;;;;;;;;5025721;28;20087;-86
2023/01/06 00:42:27;;;;;;;1.10;1.00;;;;;;;;;;5040125;28;20034;-88
2023/01/06 00:44:52;;;;;;;0.95;0.70;;;;;;;;;;5036554;28;20438;-87
2023/01/06 00:47:18;;;;;;;0.95;0.90;;;;;;;;;;5033052;28;20045;-88
2023/01/06 00:49:44;;;;;;;1.15;1.05;;;;;;;;;;5027127;28;20021;-87
2023/01/06 00:52:10;;;;;;;2.88;1.30;;;;;;;;;;5028509;28;20088;-88
2023/01/06 00:54:36;;;;;;;1.63;1.10;;;;;;;;;;5022978;28;20021;-88
2023/01/06 00:57:02;;;;;;;0.65;0.65;;;;;;;;;;5030679;28;20018;-87
2023/01/06 00:59:27;;;;;;;0.80;0.80;;;;;;;;;;5033050;28;20025;-87
2023/01/06 01:01:55;;;;;;;0.50;0.50;;;;;;;;;;5014313;28;20029;-87
2023/01/06 01:04:22;;;;;;;9.23;1.40;;;;;;;;;;5006806;28;20097;-87
2023/01/06 01:06:48;;;;;;;1.00;0.93;;;;;;;;;;5026529;28;20026;-87
2023/01/06 01:09:23;;;;;;;2.95;1.25;;;;;;;;;;5033598;28;20025;-87
2023/01/06 01:12:08;;;;;;;1.33;0.88;;;;;;;;;;5028443;28;20492;-86
2023/01/06 01:14:39;;;;;;;0.80;0.57;;;;;;;;;;5024022;28;20057;-87
2023/01/06 01:17:06;;;;;;;1.38;0.73;;;;;;;;;;5025173;28;20026;-88
2023/01/06 01:19:31;;;;;;;0.90;0.75;;;;;;;;;;5012164;28;20097;-86
2023/01/06 01:21:57;;;;;;;0.85;0.80;;;;;;;;;;5024310;28;20030;-87
2023/01/06 01:24:22;;;;;;;0.95;0.80;;;;;;;;;;5023284;28;20036;-87
2023/01/06 01:26:48;;;;;;;1.15;0.80;;;;;;;;;;5015548;28;20471;-87
2023/01/06 01:29:16;;;;;;;0.77;0.75;;;;;;;;;;5013086;28;20029;-86
2023/01/06 01:31:42;;;;;;;1.73;0.70;;;;;;;;;;5016660;28;20199;-86
2023/01/06 01:34:09;;;;;;;0.77;0.77;;;;;;;;;;5033375;28;20108;-87
2023/01/06 01:36:35;;;;;;;0.77;0.73;;;;;;;;;;5031240;28;20391;-87
2023/01/06 01:39:01;;;;;;;0.90;0.80;;;;;;;;;;5027828;28;20037;-86
2023/01/06 01:41:27;;;;;;;1.42;0.77;;;;;;;;;;5033364;28;20048;-86
2023/01/06 01:43:57;;;;;;;1.35;0.98;;;;;;;;;;5024635;28;20452;-88
2023/01/06 01:46:36;;;;;;;0.60;0.60;;;;;;;;;;5023667;28;20029;-88
2023/01/06 01:49:31;;;;;;;2.65;0.60;;;;;;;;;;5027760;28;20033;-88
2023/01/06 01:51:56;;;;;;;0.60;0.50;;;;;;;;;;5010543;28;20045;-88
2023/01/06 01:54:28;;;;;;;2.33;0.85;;;;;;;;;;5028067;28;20381;-87
2023/01/06 01:56:59;;;;;;;1.23;0.70;;;;;;;;;;5008222;28;20125;-88
2023/01/06 01:59:30;;;;;;;0.67;0.67;;;;;;;;;;5009548;28;20025;-87
2023/01/06 02:01:56;;;;;;;5.50;0.98;;;;;;;;;;5024820;28;20310;-88
2023/01/06 02:04:24;;;;;;;0.85;0.73;;;;;;;;;;5026876;28;20030;-87
2023/01/06 02:06:50;;;;;;;0.95;0.65;;;;;;;;;;5028457;28;20439;-88
2023/01/06 02:09:31;;;;;;;1.00;0.65;;;;;;;;;;5027055;28;20033;-88
2023/01/06 02:11:57;;;;;;;0.85;0.85;;;;;;;;;;5032255;28;20112;-87
2023/01/06 02:14:25;;;;;;;1.95;0.50;;;;;;;;;;5034271;28;20056;-87
2023/01/06 02:16:59;;;;;;;0.50;0.50;;;;;;;;;;5003489;28;20224;-87
2023/01/06 02:20:10;;;;;;;0.50;0.50;;;;;;;;;;5034765;28;21295;-87
2023/01/06 02:22:57;;;;;;;2.45;0.85;;;;;;;;;;5030413;28;20048;-88
2023/01/06 02:28:46;;;;;;;1.20;1.00;;;;;;;;;;4994759;28;20124;-87
2023/01/06 02:31:39;;;;;;;0.93;0.73;;;;;;;;;;4975465;28;20089;-87
2023/01/06 02:34:11;;;;;;;0.98;0.65;;;;;;;;;;5027356;28;20032;-86
2023/01/06 02:36:45;;;;;;;0.88;0.82;;;;;;;;;;5033594;28;20095;-87
2023/01/06 02:39:46;;;;;;;1.67;0.75;;;;;;;;;;5032626;28;20085;-85
2023/01/06 02:42:30;;;;;;;1.27;0.88;;;;;;;;;;5026502;28;20041;-86
2023/01/06 02:45:14;;;;;;;1.30;0.70;;;;;;;;;;5031688;28;20018;-87
2023/01/06 02:48:14;;;;;;;0.65;0.65;;;;;;;;;;5029373;28;20039;-87
2023/01/06 02:50:53;;;;;;;0.43;0.43;;;;;;;;;;5015103;28;20037;-88
2023/01/06 02:53:30;;;;;;;1.60;1.00;;;;;;;;;;5028906;28;20029;-87
2023/01/06 02:55:56;;;;;;;3.17;1.00;;;;;;;;;;5003964;28;20026;-87
2023/01/06 02:58:45;;;;;;;2.40;1.00;;;;;;;;;;5027663;28;20029;-87
2023/01/06 03:01:18;;;;;;;0.88;0.80;;;;;;;;;;5030408;28;20029;-87
2023/01/06 03:03:47;;;;;;;0.80;0.75;;;;;;;;;;5020613;28;20534;-86
2023/01/06 03:06:20;;;;;;;1.48;0.90;;;;;;;;;;5007349;28;20049;-88
2023/01/06 03:08:48;;;;;;;1.33;1.23;;;;;;;;;;5031805;28;20022;-88
2023/01/06 03:11:14;;;;;;;1.55;1.10;;;;;;;;;;5027361;28;20462;-88
2023/01/06 03:13:48;;;;;;;2.67;1.10;;;;;;;;;;5028277;28;20126;-87
2023/01/06 03:16:15;;;;;;;0.93;0.93;;;;;;;;;;5031724;28;20060;-87
2023/01/06 03:18:42;;;;;;;1.55;0.65;;;;;;;;;;5031163;28;20432;-87
2023/01/06 03:21:12;;;;;;;0.80;0.80;;;;;;;;;;5033753;28;20041;-86
2023/01/06 03:23:39;;;;;;;0.63;0.63;;;;;;;;;;5030399;28;20111;-87
2023/01/06 03:26:05;;;;;;;1.05;0.82;;;;;;;;;;5032891;28;20052;-87
2023/01/06 03:28:30;;;;;;;1.25;0.85;;;;;;;;;;5016815;28;20033;-88
2023/01/06 03:31:04;;;;;;;0.98;0.93;;;;;;;;;;5031633;28;20036;-87
2023/01/06 03:33:44;;;;;;;0.77;0.77;;;;;;;;;;5032761;28;20052;-88
2023/01/06 03:36:29;;;;;;;3.63;1.10;;;;;;;;;;5032756;28;20072;-87
2023/01/06 03:39:38;;;;;;;1.65;0.98;;;;;;;;;;5036728;28;20443;-87
2023/01/06 03:45:36;;;;;;;1.88;0.70;;;;;;;;;;5031515;28;20048;-87
2023/01/06 03:48:30;;;;;;;1.10;1.00;;;;;;;;;;5026234;28;20116;-87
2023/01/06 03:51:30;;;;;;;0.55;0.55;;;;;;;;;;5013659;28;20507;-87
2023/01/06 03:54:05;;;;;;;1.25;0.80;;;;;;;;;;5032539;28;20037;-87
2023/01/06 03:56:36;;;;;;;0.70;0.70;;;;;;;;;;5032621;28;20086;-89
2023/01/06 03:59:08;;;;;;;0.80;0.80;;;;;;;;;;5028021;28;20028;-86
2023/01/06 04:01:35;;;;;;;0.68;0.50;;;;;;;;;;5025905;28;20034;-88
2023/01/06 04:04:01;;;;;;;1.65;0.85;;;;;;;;;;5011512;28;20521;-90
2023/01/06 04:06:27;;;;;;;0.82;0.70;;;;;;;;;;5039139;28;20064;-90
2023/01/06 04:08:52;;;;;;;2.53;0.82;;;;;;;;;;5023743;28;20476;-91
2023/01/06 04:14:02;;;;;;;0.65;0.65;;;;;;;;;;5032378;28;20037;-89
2023/01/06 04:16:27;;;;;;;0.60;0.60;;;;;;;;;;5019973;28;20021;-91
2023/01/06 04:18:52;;;;;;;3.53;0.95;;;;;;;;;;5029137;28;20092;-90
2023/01/06 04:21:18;;;;;;;0.88;0.88;;;;;;;;;;5037618;28;20025;-90
2023/01/06 04:23:43;;;;;;;1.08;1.00;;;;;;;;;;5019871;28;20089;-91
2023/01/06 04:26:08;;;;;;;1.00;1.00;;;;;;;;;;5016071;28;20092;-89
2023/01/06 04:28:35;;;;;;;5.57;0.80;;;;;;;;;;5018197;28;20060;-90
2023/01/06 04:31:01;;;;;;;1.80;0.98;;;;;;;;;;5018131;28;20037;-90
2023/01/06 04:33:27;;;;;;;3.10;0.93;;;;;;;;;;5005293;28;20120;-90
2023/01/06 04:35:52;;;;;;;1.45;0.98;;;;;;;;;;5009674;28;20022;-90
2023/01/06 04:38:18;;;;;;;2.17;1.30;;;;;;;;;;5000168;28;20041;-89
2023/01/06 04:40:43;;;;;;;1.17;1.05;;;;;;;;;;5017285;28;20026;-89
2023/01/06 04:43:14;;;;;;;1.02;0.98;;;;;;;;;;5002846;28;20507;-89
2023/01/06 04:45:40;;;;;;;1.88;0.93;;;;;;;;;;5036212;28;20022;-88
2023/01/06 04:48:06;;;;;;;2.53;1.17;;;;;;;;;;5015169;28;20120;-87
2023/01/06 04:50:32;;;;;;;1.92;0.90;;;;;;;;;;5024728;28;20056;-89
2023/01/06 04:52:57;;;;;;;1.05;0.90;;;;;;;;;;5011528;28;20034;-89
2023/01/06 04:55:23;;;;;;;0.88;0.80;;;;;;;;;;5022914;28;20029;-89
2023/01/06 04:57:49;;;;;;;1.05;1.00;;;;;;;;;;5006260;28;20125;-89
2023/01/06 05:00:15;;;;;;;2.13;0.90;;;;;;;;;;5028438;28;20152;-89
2023/01/06 05:02:41;;;;;;;1.02;0.98;;;;;;;;;;5033002;28;20026;-88
2023/01/06 05:05:07;;;;;;;0.85;0.85;;;;;;;;;;5029510;28;20037;-89
2023/01/06 05:07:33;;;;;;;1.00;0.80;;;;;;;;;;5027430;28;20034;-89
2023/01/06 05:09:58;;;;;;;1.27;1.00;;;;;;;;;;5009741;28;20036;-89
2023/01/06 05:12:24;;;;;;;1.95;1.05;;;;;;;;;;5032723;28;20026;-89
2023/01/06 05:14:49;;;;;;;1.15;1.15;;;;;;;;;;5022979;28;20056;-88
2023/01/06 05:17:15;;;;;;;1.77;0.90;;;;;;;;;;5027695;28;20036;-88
2023/01/06 05:19:41;;;;;;;1.25;1.10;;;;;;;;;;5027601;28;20104;-89
2023/01/06 05:22:07;;;;;;;1.05;0.88;;;;;;;;;;5016721;28;20468;-90
2023/01/06 05:24:33;;;;;;;1.48;1.10;;;;;;;;;;5008309;28;20033;-89
2023/01/06 05:26:58;;;;;;;1.08;0.98;;;;;;;;;;5034353;28;20029;-89
2023/01/06 05:29:24;;;;;;;1.00;1.00;;;;;;;;;;5009215;28;20037;-89
2023/01/06 05:31:49;;;;;;;1.17;0.90;;;;;;;;;;5017151;28;20021;-88
2023/01/06 05:34:14;;;;;;;2.30;1.10;;;;;;;;;;5017274;28;20029;-89
2023/01/06 05:36:40;;;;;;;3.55;2.08;;;;;;;;;;5006762;28;20036;-88
2023/01/06 05:39:05;;;;;;;2.47;1.80;;;;;;;;;;5023580;28;20041;-89
2023/01/06 05:41:31;;;;;;;2.40;1.60;;;;;;;;;;5023524;28;20040;-89
2023/01/06 05:43:56;;;;;;;3.22;1.85;;;;;;;;;;5033353;28;20029;-89
2023/01/06 05:46:21;;;;;;;1.30;1.20;;;;;;;;;;5010272;28;20032;-91
2023/01/06 05:48:47;;;;;;;6.97;1.90;;;;;;;;;;5025100;28;20079;-90
2023/01/06 05:51:14;;;;;;;2.00;1.65;;;;;;;;;;5026850;28;20021;-90
2023/01/06 05:53:43;;;;;;;4.15;1.80;;;;;;;;;;5016030;28;20072;-89
2023/01/06 05:56:10;;;;;;;1.63;1.40;;;;;;;;;;5027072;28;20021;-90
2023/01/06 05:58:39;;;;;;;2.05;1.33;;;;;;;;;;5026205;28;20029;-89
2023/01/06 06:01:05;;;;;;;2.75;1.70;;;;;;;;;;5026494;28;20029;-90
2023/01/06 06:03:31;;;;;;;2.10;1.52;;;;;;;;;;5032286;28;20037;-90
2023/01/06 06:06:05;;;;;;;2.13;1.80;;;;;;;;;;5008271;28;20344;-90
2023/01/06 06:08:31;;;;;;;1.63;1.40;;;;;;;;;;5026369;28;20065;-90
2023/01/06 06:11:04;;;;;;;2.15;1.48;;;;;;;;;;5003150;28;20045;-88
2023/01/06 06:13:30;;;;;;;2.85;1.88;;;;;;;;;;5035166;28;20088;-89
2023/01/06 06:16:07;;;;;;;1.17;1.08;;;;;;;;;;5016845;28;20440;-87
2023/01/06 06:18:35;;;;;;;3.33;1.50;;;;;;;;;;5028615;28;20029;-87
2023/01/06 06:21:01;;;;;;;2.65;1.35;;;;;;;;;;5026540;28;20024;-88
2023/01/06 06:23:27;;;;;;;1.55;1.40;;;;;;;;;;5026260;28;20472;-86
2023/01/06 06:25:53;;;;;;;2.53;1.50;;;;;;;;;;5026111;28;20025;-87
2023/01/06 06:28:18;;;;;;;2.95;1.45;;;;;;;;;;5035307;28;20040;-87
2023/01/06 06:30:43;;;;;;;1.90;1.40;;;;;;;;;;5020668;28;20022;-88
2023/01/06 06:33:09;;;;;;;1.13;1.10;;;;;;;;;;5034693;28;20419;-88
2023/01/06 06:35:34;;;;;;;8.68;1.10;;;;;;;;;;5008983;28;20472;-87
2023/01/06 06:37:59;;;;;;;1.63;1.17;;;;;;;;;;5034882;28;20120;-87
2023/01/06 06:40:26;;;;;;;2.58;1.25;;;;;;;;;;5035051;28;20507;-87
2023/01/06 06:42:51;;;;;;;1.70;1.38;;;;;;;;;;5031965;28;20116;-87
2023/01/06 06:45:17;;;;;;;2.45;1.20;;;;;;;;;;5015176;28;20069;-88
2023/01/06 06:47:42;;;;;;;1.42;1.33;;;;;;;;;;5024152;28;20037;-88
2023/01/06 06:50:10;;;;;;;2.08;1.25;;;;;;;;;;5029537;28;20083;-87
2023/01/06 06:52:36;;;;;;;2.65;1.55;;;;;;;;;;5036441;28;20041;-89
2023/01/06 06:55:01;;;;;;;1.77;1.58;;;;;;;;;;5029333;28;20025;-88
2023/01/06 06:57:26;;;;;;;1.60;1.10;;;;;;;;;;5030207;28;20463;-89
2023/01/06 06:59:52;;;;;;;2.42;1.90;;;;;;;;;;5036590;28;20068;-87
2023/01/06 07:02:17;;;;;;;2.78;1.77;;;;;;;;;;5027819;28;20072;-88
2023/01/06 07:04:42;;;;;;;1.25;1.20;;;;;;;;;;5047942;28;20009;-87
2023/01/06 07:07:08;;;;;;;1.25;1.17;;;;;;;;;;5047612;28;20030;-90
2023/01/06 07:09:33;;;;;;;1.58;1.00;;;;;;;;;;5020386;28;20028;-88
2023/01/06 07:11:59;;;;;;;1.27;0.98;;;;;;;;;;5022872;28;20037;-89
2023/01/06 07:14:24;;;;;;;1.13;0.95;;;;;;;;;;5046374;28;20100;-90
2023/01/06 07:16:49;;;;;;;1.55;1.30;;;;;;;;;;5041771;28;20037;-88
2023/01/06 07:19:15;;;;;;;6.68;1.65;;;;;;;;;;5030717;28;20061;-90
2023/01/06 07:21:40;;;;;;;1.50;1.13;;;;;;;;;;5037269;28;20395;-88
2023/01/06 07:24:06;;;;;;;1.00;1.00;;;;;;;;;;5034376;28;20032;-91
2023/01/06 07:26:31;;;;;;;1.63;1.38;;;;;;;;;;5036645;28;20022;-91
2023/01/06 07:28:56;;;;;;;1.33;1.23;;;;;;;;;;5025392;28;20086;-89
2023/01/06 07:31:22;;;;;;;1.17;1.17;;;;;;;;;;5015301;28;20033;-90
2023/01/06 07:33:47;;;;;;;1.70;1.55;;;;;;;;;;5010585;28;20036;-89
2023/01/06 07:36:12;;;;;;;1.50;1.40;;;;;;;;;;5019865;28;20021;-91
2023/01/06 07:38:37;;;;;;;1.80;1.50;;;;;;;;;;5020056;28;20403;-91
2023/01/06 07:41:03;;;;;;;1.80;1.67;;;;;;;;;;5021785;28;20058;-90
2023/01/06 07:43:28;;;;;;;2.83;1.67;;;;;;;;;;5021295;28;20093;-87
2023/01/06 07:45:54;;;;;;;1.10;1.02;;;;;;;;;;5019193;28;20034;-92
2023/01/06 07:48:19;;;;;;;0.90;0.90;;;;;;;;;;5043771;28;20256;-89
2023/01/06 07:50:44;;;;;;;1.45;1.10;;;;;;;;;;5031979;28;20026;-91
2023/01/06 07:53:11;;;;;;;1.80;1.10;;;;;;;;;;5022565;28;20369;-89
2023/01/06 07:55:36;;;;;;;2.17;1.02;;;;;;;;;;5033727;28;20108;-88
2023/01/06 07:58:06;;;;;;;1.08;0.95;;;;;;;;;;5033954;28;20045;-90
2023/01/06 08:00:32;;;;;;;0.88;0.88;;;;;;;;;;5008905;28;20017;-90
2023/01/06 08:02:57;;;;;;;0.55;0.55;;;;;;;;;;5013002;28;20789;-88
2023/01/06 08:05:23;;;;;;;1.73;1.05;;;;;;;;;;5033668;28;20049;-88
2023/01/06 08:07:48;;;;;;;0.80;0.80;;;;;;;;;;5014014;28;20388;-89
2023/01/06 08:10:14;;;;;;;0.55;0.55;;;;;;;;;;5036027;28;20108;-91
2023/01/06 08:12:39;;;;;;;0.85;0.85;;;;;;;;;;5020477;28;20100;-89
2023/01/06 08:15:05;;;;;;;1.33;0.50;;;;;;;;;;4999676;28;20072;-88
2023/01/06 08:17:31;;;;;;;2.17;0.65;;;;;;;;;;5034367;28;20021;-87
2023/01/06 08:19:56;;;;;;;1.48;1.00;;;;;;;;;;5030883;28;20029;-88
2023/01/06 08:22:23;;;;;;;0.60;0.60;;;;;;;;;;5036812;28;20094;-88
2023/01/06 08:24:48;;;;;;;0.85;0.82;;;;;;;;;;5029236;28;20387;-86
2023/01/06 08:27:13;;;;;;;1.00;0.93;;;;;;;;;;5011358;28;20041;-87
2023/01/06 08:29:39;;;;;;;1.27;0.88;;;;;;;;;;5032002;28;20037;-86
2023/01/06 08:32:04;;;;;;;0.63;0.63;;;;;;;;;;5026025;28;20021;-86
2023/01/06 08:34:29;;;;;;;2.55;0.47;;;;;;;;;;5017075;28;20021;-87
2023/01/06 08:36:55;;;;;;;0.80;0.77;;;;;;;;;;5017450;28;20104;-87
2023/01/06 08:39:20;;;;;;;0.57;0.57;;;;;;;;;;5017581;28;20116;-88
2023/01/06 08:41:50;;;;;;;4.63;0.70;;;;;;;;;;5036104;28;20035;-87
2023/01/06 08:44:15;;;;;;;1.85;0.70;;;;;;;;;;5021954;28;20049;-87
2023/01/06 08:46:41;;;;;;;1.42;0.77;;;;;;;;;;5036690;28;20106;-88
2023/01/06 08:49:06;;;;;;;0.60;0.60;;;;;;;;;;5033750;28;20025;-89
2023/01/06 08:51:33;;;;;;;0.50;0.50;;;;;;;;;;5017218;28;20040;-87
2023/01/06 08:53:58;;;;;;;1.02;0.70;;;;;;;;;;5037538;28;20120;-87
2023/01/06 08:56:26;;;;;;;1.58;0.70;;;;;;;;;;5035681;28;20372;-89
2023/01/06 08:58:54;;;;;;;1.98;0.50;;;;;;;;;;5028409;28;20049;-87
2023/01/06 09:01:22;;;;;;;0.60;0.60;;;;;;;;;;5026587;28;20595;-87
2023/01/06 09:03:48;;;;;;;0.43;0.43;;;;;;;;;;5034198;28;20118;-88
2023/01/06 09:06:14;;;;;;;1.65;0.60;;;;;;;;;;5031827;28;20084;-87
2023/01/06 09:08:39;;;;;;;1.88;0.70;;;;;;;;;;5021475;28;20037;-89
2023/01/06 09:11:10;;;;;;;0.68;0.38;;;;;;;;;;5002387;28;20116;-87
2023/01/06 09:13:36;;;;;;;0.55;0.52;;;;;;;;;;5019729;28;20036;-87
2023/01/06 09:16:08;;;;;;;2.58;0.90;;;;;;;;;;5032787;28;20037;-88
2023/01/06 09:18:35;;;;;;;0.55;0.40;;;;;;;;;;5031625;28;20494;-88
2023/01/06 09:21:00;;;;;;;0.75;0.70;;;;;;;;;;5011694;28;20017;-87
2023/01/06 09:23:26;;;;;;;0.50;0.50;;;;;;;;;;5015136;28;20038;-88
2023/01/06 09:25:53;;;;;;;0.95;0.60;;;;;;;;;;5035590;28;20021;-88
2023/01/06 09:28:18;;;;;;;1.92;0.73;;;;;;;;;;5012534;28;20025;-87
2023/01/06 09:30:47;;;;;;;4.35;0.70;;;;;;;;;;5025786;28;20018;-89
2023/01/06 09:33:12;;;;;;;0.75;0.30;;;;;;;;;;5026436;28;20463;-89
2023/01/06 09:35:37;;;;;;;0.20;0.20;;;;;;;;;;5027199;28;20137;-89
2023/01/06 09:38:03;;;;;;;0.63;0.50;;;;;;;;;;4998539;28;20395;-89
2023/01/06 09:40:38;;;;;;;0.20;0.20;;;;;;;;;;5008785;28;20029;-87
2023/01/06 09:43:12;;;;;;;0.40;0.40;;;;;;;;;;5015404;28;20508;-89
2023/01/06 09:45:43;;;;;;;0.38;0.38;;;;;;;;;;5018850;28;20044;-87
2023/01/06 09:48:17;;;;;;;0.50;0.50;;;;;;;;;;5017845;28;20036;-87
2023/01/06 09:50:50;;;;;;;1.75;0.60;;;;;;;;;;5033966;28;20082;-88
2023/01/06 09:53:24;;;;;;;0.35;0.35;;;;;;;;;;5034581;28;20442;-88
2023/01/06 09:55:56;;;;;;;1.08;0.40;;;;;;;;;;5034756;28;20387;-90
2023/01/06 09:58:31;;;;;;;0.20;0.20;;;;;;;;;;5035192;28;20039;-89
2023/01/06 10:01:03;;;;;;;1.58;0.70;;;;;;;;;;5028778;28;20045;-87
2023/01/06 10:03:28;;;;;;;0.17;0.17;;;;;;;;;;5030609;28;20120;-88
2023/01/06 10:06:13;;;;;;;0.38;0.38;;;;;;;;;;5031066;28;20069;-88
2023/01/06 10:08:58;;;;;;;0.68;0.50;;;;;;;;;;5026994;28;20610;-88
2023/01/06 10:11:30;;;;;;;0.20;0.20;;;;;;;;;;5007048;28;20464;-87
2023/01/06 10:14:04;;;;;;;;;;;;;;;;;;5018120;28;20029;-86
2023/01/06 10:16:55;;;;;;;0.38;0.38;;;;;;;;;;5022282;28;19935;-88
2023/01/06 10:19:33;;;;;;;0.22;0.22;;;;;;;;;;5035292;28;20017;-87
2023/01/06 10:22:34;;;;;;;0.30;0.30;;;;;;;;;;5011902;28;20403;-87
2023/01/06 10:25:49;;;;;;;0.73;0.60;;;;;;;;;;5025416;28;20758;-88
2023/01/06 10:28:20;;;;;;;0.35;0.35;;;;;;;;;;5043528;28;20037;-90
2023/01/06 10:30:49;;;;;;;1.65;0.50;;;;;;;;;;5016863;28;20033;-87
2023/01/06 10:33:26;;;;;;;0.60;0.40;;;;;;;;;;5024839;28;20080;-88
2023/01/06 10:35:53;;;;;;;0.45;0.45;;;;;;;;;;5033107;28;20032;-89
2023/01/06 10:38:38;;;;;;;0.52;0.30;;;;;;;;;;5032382;28;20120;-87
2023/01/06 10:41:32;;;;;;;0.20;0.20;;;;;;;;;;5017486;28;20022;-89
2023/01/06 10:43:57;;;;;;;1.08;0.50;;;;;;;;;;5028540;28;20033;-88
2023/01/06 10:46:29;;;;;;;0.45;0.45;;;;;;;;;;5029286;28;20036;-89
2023/01/06 10:48:55;;;;;;;;;;;;;;;;;;5030800;28;20070;-85
2023/01/06 10:51:35;;;;;;;0.95;0.50;;;;;;;;;;5019618;28;19925;-89
2023/01/06 10:54:07;;;;;;;0.60;0.60;;;;;;;;;;5017169;28;20026;-87
2023/01/06 10:56:34;;;;;;;0.50;0.50;;;;;;;;;;5006446;28;20390;-88
2023/01/06 10:59:10;;;;;;;0.47;0.47;;;;;;;;;;5032756;28;20033;-87
2023/01/06 11:01:51;;;;;;;0.35;0.35;;;;;;;;;;5025661;28;20038;-88
2023/01/06 11:04:18;;;;;;;0.30;0.30;;;;;;;;;;5003939;28;20032;-88
2023/01/06 11:06:53;;;;;;;0.40;0.40;;;;;;;;;;5031323;28;20021;-86
2023/01/06 11:09:21;;;;;;;1.30;0.50;;;;;;;;;;5010954;28;20091;-87
2023/01/06 11:11:48;;;;;;;0.65;0.50;;;;;;;;;;5000259;28;20096;-87
2023/01/06 11:14:17;;;;;;;0.60;0.60;;;;;;;;;;5027125;28;20021;-86
2023/01/06 11:16:56;;;;;;;1.10;0.40;;;;;;;;;;5027274;28;20047;-89
2023/01/06 11:19:31;;;;;;;2.50;0.40;;;;;;;;;;5022059;28;20100;-87
2023/01/06 11:21:57;;;;;;;0.35;0.35;;;;;;;;;;4997249;28;20034;-89
2023/01/06 11:24:24;;;;;;;0.70;0.43;;;;;;;;;;5015505;28;20025;-88
2023/01/06 11:27:00;;;;;;;0.60;0.47;;;;;;;;;;5036276;28;20028;-86
2023/01/06 11:29:29;;;;;;;0.40;0.40;;;;;;;;;;4997421;28;20026;-89
2023/01/06 11:31:56;;;;;;;0.30;0.30;;;;;;;;;;5029298;28;20454;-88
2023/01/06 11:34:26;;;;;;;0.30;0.30;;;;;;;;;;5039868;28;20022;-88
2023/01/06 11:36:52;;;;;;;0.45;0.45;;;;;;;;;;5032252;28;20105;-88
2023/01/06 11:39:25;;;;;;;0.50;0.50;;;;;;;;;;5027742;28;20056;-89
2023/01/06 11:41:52;;;;;;;0.40;0.40;;;;;;;;;;5013306;28;20419;-88
2023/01/06 11:44:28;;;;;;;0.68;0.68;;;;;;;;;;5017680;28;20030;-87
2023/01/06 11:47:04;;;;;;;0.93;0.80;;;;;;;;;;5023898;28;20049;-87
2023/01/06 11:49:33;;;;;;;2.33;0.80;;;;;;;;;;5040367;28;20479;-89
2023/01/06 11:52:18;;;;;;;0.75;0.75;;;;;;;;;;5020006;28;20064;-89
2023/01/06 11:54:44;;;;;;;0.77;0.60;;;;;;;;;;5019983;28;20025;-87
2023/01/06 11:57:22;;;;;;;1.00;0.98;;;;;;;;;;5038065;28;20021;-88
2023/01/06 11:59:54;;;;;;;2.22;0.70;;;;;;;;;;5023563;28;20030;-88
2023/01/06 12:02:29;;;;;;;0.47;0.47;;;;;;;;;;5036190;28;20030;-87
2023/01/06 12:04:55;;;;;;;0.40;0.40;;;;;;;;;;5027432;28;20029;-87
2023/01/06 12:07:50;;;;;;;3.85;0.95;;;;;;;;;;5005607;28;20071;-87
2023/01/06 12:10:20;;;;;;;0.70;0.70;;;;;;;;;;5032012;28;20096;-87
2023/01/06 12:12:47;;;;;;;0.65;0.65;;;;;;;;;;5019606;28;20112;-88
2023/01/06 12:15:15;;;;;;;3.10;0.60;;;;;;;;;;5036874;28;20064;-88
2023/01/06 12:18:08;;;;;;;0.50;0.50;;;;;;;;;;5025901;28;20066;-88
2023/01/06 12:20:40;;;;;;;0.52;0.52;;;;;;;;;;5018452;28;20550;-87
2023/01/06 12:23:19;;;;;;;1.55;0.40;;;;;;;;;;5008288;28;20076;-88
2023/01/06 12:25:47;;;;;;;0.40;0.40;;;;;;;;;;5032029;28;20079;-87
2023/01/06 12:28:17;;;;;;;0.30;0.30;;;;;;;;;;5019764;28;20044;-87
2023/01/06 12:30:49;;;;;;;1.00;0.90;;;;;;;;;;5041034;28;20017;-87
2023/01/06 12:33:14;;;;;;;;;;;;;;;;;;5029844;28;20032;-87
2023/01/06 12:35:42;;;;;;;0.98;0.57;;;;;;;;;;5033132;28;19909;-88
2023/01/06 12:38:46;;;;;;;0.63;0.52;;;;;;;;;;5033855;28;20045;-88
2023/01/06 12:41:29;;;;;;;0.52;0.50;;;;;;;;;;5010484;28;20127;-89
2023/01/06 12:44:02;;;;;;;;;;;;;;;;;;5019116;28;20032;-86
2023/01/06 12:46:33;;;;;;;0.40;0.40;;;;;;;;;;5018327;28;19916;-87
2023/01/06 12:49:03;;;;;;;0.30;0.30;;;;;;;;;;5047779;28;20037;-89
2023/01/06 12:51:45;;;;;;;0.20;0.20;;;;;;;;;;5017239;28;20135;-87
2023/01/06 12:54:18;;;;;;;0.40;0.40;;;;;;;;;;5018826;28;20503;-87
2023/01/06 12:57:00;;;;;;;0.43;0.43;;;;;;;;;;5018352;28;20022;-87
2023/01/06 12:59:26;;;;;;;;;;;;;;;;;;5034686;28;20032;-87
2023/01/06 13:02:15;;;;;;;0.38;0.38;;;;;;;;;;5007449;28;19913;-87
2023/01/06 13:05:03;;;;;;;0.50;0.50;;;;;;;;;;5029347;28;20101;-88
2023/01/06 13:07:58;;;;;;;0.30;0.30;;;;;;;;;;5020893;28;20033;-87
2023/01/06 13:10:42;;;;;;;0.30;0.30;;;;;;;;;;5028820;28;20377;-88
2023/01/06 13:13:31;;;;;;;0.40;0.40;;;;;;;;;;5032768;28;20033;-87
2023/01/06 13:16:03;;;;;;;0.65;0.30;;;;;;;;;;5025855;28;20087;-89
2023/01/06 13:18:34;;;;;;;0.30;0.30;;;;;;;;;;5025590;28;20064;-88
2023/01/06 13:21:20;;;;;;;0.40;0.40;;;;;;;;;;5026070;28;20080;-87
2023/01/06 13:24:24;;;;;;;0.40;0.40;;;;;;;;;;5033070;28;20266;-87
2023/01/06 13:27:13;;;;;;;0.20;0.20;;;;;;;;;;5035214;28;20057;-89
2023/01/06 13:29:53;;;;;;;0.22;0.22;;;;;;;;;;5030552;28;20036;-87
2023/01/06 13:32:46;;;;;;;0.52;0.40;;;;;;;;;;5028910;28;20029;-88
2023/01/06 13:35:22;;;;;;;1.65;0.38;;;;;;;;;;5047722;28;20021;-88
2023/01/06 13:38:09;;;;;;;0.40;0.40;;;;;;;;;;5023010;28;20514;-89
2023/01/06 13:40:38;;;;;;;0.47;0.47;;;;;;;;;;5028655;28;20121;-89
2023/01/06 13:43:21;;;;;;;0.60;0.60;;;;;;;;;;4999607;28;20355;-90
2023/01/06 13:45:51;;;;;;;1.17;0.82;;;;;;;;;;5023892;28;20125;-88
2023/01/06 13:48:23;;;;;;;0.75;0.70;;;;;;;;;;5001305;28;20484;-89
2023/01/06 13:50:49;;;;;;;0.63;0.63;;;;;;;;;;5022966;28;20151;-88
2023/01/06 13:53:20;;;;;;;0.60;0.60;;;;;;;;;;5033323;28;20053;-88
2023/01/06 13:55:46;;;;;;;0.82;0.82;;;;;;;;;;5038332;28;20010;-88
2023/01/06 13:58:24;;;;;;;0.45;0.45;;;;;;;;;;5032284;28;20455;-88
2023/01/06 14:01:29;;;;;;;0.50;0.50;;;;;;;;;;5016278;28;20048;-87
2023/01/06 14:04:37;;;;;;;1.15;0.75;;;;;;;;;;5021326;28;20030;-88
2023/01/06 14:07:03;;;;;;;0.60;0.60;;;;;;;;;;5018574;28;20021;-89
2023/01/06 14:09:33;;;;;;;1.80;0.80;;;;;;;;;;5029200;28;20117;-89
2023/01/06 14:12:10;;;;;;;0.82;0.82;;;;;;;;;;5028115;28;20029;-90
2023/01/06 14:14:37;;;;;;;2.40;0.93;;;;;;;;;;5039390;28;20052;-88
2023/01/06 14:17:25;;;;;;;1.25;0.77;;;;;;;;;;5039438;28;20026;-87
2023/01/06 14:19:52;;;;;;;0.70;0.70;;;;;;;;;;5014827;28;20033;-90
2023/01/06 14:22:21;;;;;;;0.85;0.80;;;;;;;;;;5048409;28;20077;-89
2023/01/06 14:24:56;;;;;;;0.60;0.60;;;;;;;;;;5045887;28;20035;-88
2023/01/06 14:27:46;;;;;;;0.82;0.82;;;;;;;;;;5022493;28;20037;-88
2023/01/06 14:30:20;;;;;;;1.50;0.90;;;;;;;;;;5014448;28;20026;-88
2023/01/06 14:32:45;;;;;;;0.70;0.70;;;;;;;;;;5023895;28;20030;-89
2023/01/06 14:35:17;;;;;;;2.00;0.80;;;;;;;;;;5028925;28;20108;-88
2023/01/06 14:38:08;;;;;;;0.80;0.80;;;;;;;;;;5014100;28;20117;-88
2023/01/06 14:40:48;;;;;;;1.27;1.17;;;;;;;;;;5019760;28;20048;-88
2023/01/06 14:43:30;;;;;;;1.13;1.02;;;;;;;;;;5010803;28;20092;-89
2023/01/06 14:46:00;;;;;;;1.20;1.10;;;;;;;;;;5031203;28;20035;-87
2023/01/06 14:48:27;;;;;;;2.35;1.20;;;;;;;;;;5015734;28;20042;-89
2023/01/06 14:50:57;;;;;;;0.77;0.77;;;;;;;;;;5030399;28;20021;-87
2023/01/06 14:53:38;;;;;;;1.00;0.93;;;;;;;;;;5012146;28;20044;-87
2023/01/06 14:56:19;;;;;;;1.58;0.98;;;;;;;;;;5031172;28;20035;-90
2023/01/06 14:58:44;;;;;;;1.27;1.05;;;;;;;;;;4999695;28;20026;-88
2023/01/06 15:01:31;;;;;;;0.82;0.65;;;;;;;;;;5008679;28;20117;-88
2023/01/06 15:04:00;;;;;;;0.65;0.65;;;;;;;;;;5029638;28;20120;-88
2023/01/06 15:06:27;;;;;;;0.70;0.70;;;;;;;;;;5016163;28;20056;-88
2023/01/06 15:08:54;;;;;;;2.22;0.82;;;;;;;;;;5029332;28;20026;-88
2023/01/06 15:11:28;;;;;;;0.75;0.75;;;;;;;;;;5031951;28;20033;-88
2023/01/06 15:13:54;;;;;;;0.70;0.70;;;;;;;;;;5037007;28;20092;-87
2023/01/06 15:16:34;;;;;;;0.90;0.90;;;;;;;;;;5033747;28;20033;-89
2023/01/06 15:19:00;;;;;;;0.70;0.70;;;;;;;;;;5044995;28;20033;-90